Etusivu
METAR-TAF:

METAR-TAF

Lentoasemat :

Bagdad, Irak

Bagdadin kansainvälinen lentoasema

Leveyspiiri: 33-15-45N, Pituuspiiri: 44-14-04E, korkeus merenpinnasta: 35 m

Tämänhetkinen sää

Tämä raportti tehtiin 36 minuuttia sitten, kello 22.00 UTC
Tuuli 2 kn eri suunnista
Lämpötila 32°C
Kosteus 28%
Ilmanpaine 1007 hPa
Näkyvyys: 6000 m

METAR: ORBI 192200Z VRB02KT 6000 NSC 32/11 Q1007 NOSIG

Aika: 01:36 (22:36 UTC)

Sääennuste

Tämä raportti tehtiin 5 tuntia ja 36 minuuttia sitten, kello 17.00 UTC
Ennuste voimassa 19. päivästä klo 18 UTC - 20. päivään klo 18 UTC
Tuuli 3 kn eri suunnista
Näkyvyys: 6000 m
Hajanaisia pilviä 3000 ft:n korkeudessa
Todennäköisyys 30%
19. päivästä klo 21 UTC - 20. päivään klo 04 UTC
Näkyvyys: 2000 m
laajalle levinnyttä pölyä
Tulossa
20. päivästä klo 06 UTC - 20. päivään klo 08 UTC
Näkyvyys: 7000 m

TAF: ORBI 191700Z 1918/2018 VRB03KT 6000 SCT030 PROB30 1921/2004 2000 DU BECMG 2006/2008 7000

Säähavainnot ja -ennusteet yli 4000 lentoasemalta (METAR- ja TAF-raportit).

Käytössä olevat sääasemat on merkitty karttaan keltaisilla ja punaisilla pisteillä.

Aseta hiiri pisteen päälle nähdäksesi sääaseman nimen.

Klikkaa sitten nähdäksesi säähavainnot ja -ennusteet.

Kartan vaihtaminen: klikkaa mustalla rastilla varustettuja vihreitä pisteitä, niin voit zoomata sisään; viivalla varustettua vihreää pistettä, niin voit zoomata ulos tai vihreitä nuolia, niin pääset viereisille kartoille.


METAR-TAF: